createdAt,value
2019-03-16T00:01:06.362Z,1.10
2019-03-16T00:03:35.976Z,1.10
2019-03-16T00:06:05.487Z,1.17
2019-03-16T00:08:35.463Z,1.45
2019-03-16T00:11:04.973Z,1.67
2019-03-16T00:13:34.524Z,1.05
2019-03-16T00:16:04.041Z,2.50
2019-03-16T00:18:33.530Z,1.07
2019-03-16T00:21:03.083Z,2.35
2019-03-16T00:23:32.677Z,1.20
2019-03-16T00:26:02.106Z,1.20
2019-03-16T00:28:31.633Z,1.30
2019-03-16T00:31:01.263Z,4.10
2019-03-16T00:33:30.709Z,1.30
2019-03-16T00:36:00.226Z,1.20
2019-03-16T00:38:29.854Z,1.10
2019-03-16T00:40:59.312Z,1.65
2019-03-16T00:43:28.913Z,1.05
2019-03-16T00:45:58.555Z,1.22
2019-03-16T00:48:28.114Z,1.00
2019-03-16T00:50:57.555Z,1.25
2019-03-16T00:53:27.052Z,1.42
2019-03-16T00:55:56.536Z,1.95
2019-03-16T00:58:26.057Z,1.25
2019-03-16T01:00:55.680Z,1.45
2019-03-16T01:03:25.129Z,1.30
2019-03-16T01:05:54.662Z,1.15
2019-03-16T01:08:24.186Z,4.58
2019-03-16T01:10:53.803Z,1.20
2019-03-16T01:13:23.321Z,1.30
2019-03-16T01:15:53.048Z,1.10
2019-03-16T01:18:22.646Z,0.80
2019-03-16T01:20:52.190Z,1.20
2019-03-16T01:23:21.773Z,1.30
2019-03-16T01:25:51.729Z,1.20
2019-03-16T01:28:21.197Z,1.25
2019-03-16T01:30:50.738Z,2.00
2019-03-16T01:33:20.281Z,1.00
2019-03-16T01:35:49.912Z,2.67
2019-03-16T01:38:19.365Z,0.98
2019-03-16T01:40:48.899Z,1.10
2019-03-16T01:43:18.560Z,1.00
2019-03-16T01:45:48.037Z,1.02
2019-03-16T01:48:35.275Z,1.20
2019-03-16T01:51:04.831Z,0.90
2019-03-16T01:53:34.316Z,0.90
2019-03-16T01:56:03.919Z,0.80
2019-03-16T01:58:33.410Z,0.82
2019-03-16T02:01:02.904Z,3.70
2019-03-16T02:03:32.504Z,2.25
2019-03-16T02:06:02.002Z,1.00
2019-03-16T02:08:31.520Z,0.95
2019-03-16T02:11:01.102Z,0.90
2019-03-16T02:13:30.623Z,0.80
2019-03-16T02:16:10.368Z,1.10
2019-03-16T02:18:31.267Z,1.90
2019-03-16T02:21:00.818Z,0.98
2019-03-16T02:23:30.496Z,0.93
2019-03-16T02:26:00.000Z,0.93
2019-03-16T02:28:29.564Z,0.90
2019-03-16T02:30:59.115Z,1.00
2019-03-16T02:33:28.662Z,1.20
2019-03-16T02:35:58.146Z,1.72
2019-03-16T02:38:27.714Z,1.45
2019-03-16T02:40:57.275Z,2.25
2019-03-16T02:43:26.891Z,1.50
2019-03-16T02:45:56.421Z,1.10
2019-03-16T02:48:25.965Z,1.23
2019-03-16T02:50:55.699Z,1.17
2019-03-16T02:53:25.270Z,1.00
2019-03-16T02:55:54.769Z,1.10
2019-03-16T02:58:24.319Z,1.25
2019-03-16T03:00:53.852Z,1.55
2019-03-16T03:03:29.929Z,1.55
2019-03-16T03:05:54.557Z,1.87
2019-03-16T03:08:24.104Z,0.90
2019-03-16T03:10:53.649Z,2.77
2019-03-16T03:13:23.140Z,1.72
2019-03-16T03:15:53.004Z,1.20
2019-03-16T03:18:22.717Z,0.90
2019-03-16T03:20:52.366Z,1.10
2019-03-16T03:23:21.895Z,1.10
2019-03-16T03:25:51.347Z,1.30
2019-03-16T03:28:20.880Z,1.25
2019-03-16T03:30:50.379Z,2.20
2019-03-16T03:33:20.046Z,1.12
2019-03-16T03:35:49.661Z,1.35
2019-03-16T03:38:19.136Z,3.65
2019-03-16T03:40:48.731Z,1.40
2019-03-16T03:43:18.247Z,1.32
2019-03-16T03:45:47.747Z,1.23
2019-03-16T03:48:17.586Z,1.55
2019-03-16T03:50:47.140Z,1.07
2019-03-16T03:53:16.781Z,1.27
2019-03-16T03:56:04.057Z,1.20
2019-03-16T03:58:33.721Z,2.50
2019-03-16T04:01:03.278Z,1.33
2019-03-16T04:03:32.812Z,1.15
2019-03-16T04:06:02.803Z,1.12
2019-03-16T04:08:32.275Z,1.47
2019-03-16T04:11:01.931Z,1.20
2019-03-16T04:13:31.425Z,1.30
2019-03-16T04:16:00.936Z,1.40
2019-03-16T04:18:30.812Z,1.95
2019-03-16T04:21:00.324Z,2.00
2019-03-16T04:23:30.240Z,3.00
2019-03-16T04:26:00.142Z,1.53
2019-03-16T04:28:29.635Z,2.97
2019-03-16T04:30:59.155Z,1.00
2019-03-16T04:33:29.016Z,1.92
2019-03-16T04:35:58.431Z,1.43
2019-03-16T04:38:27.936Z,1.67
2019-03-16T04:40:57.535Z,1.85
2019-03-16T04:43:27.107Z,2.00
2019-03-16T04:45:56.649Z,1.50
2019-03-16T04:48:26.270Z,1.60
2019-03-16T04:50:55.743Z,2.52
2019-03-16T04:53:26.128Z,2.40
2019-03-16T04:55:55.769Z,2.77
2019-03-16T04:58:25.332Z,1.75
2019-03-16T05:01:30.484Z,3.87
2019-03-16T05:04:00.012Z,2.87
2019-03-16T05:06:30.898Z,1.87
2019-03-16T05:09:00.439Z,3.17
2019-03-16T05:11:30.090Z,2.60
2019-03-16T05:13:59.612Z,1.93
2019-03-16T05:16:29.284Z,2.50
2019-03-16T05:18:58.838Z,2.27
2019-03-16T05:21:28.362Z,2.83
2019-03-16T05:23:57.914Z,1.40
2019-03-16T05:26:27.479Z,1.85
2019-03-16T05:28:56.949Z,1.20
2019-03-16T05:31:26.517Z,2.50
2019-03-16T05:33:56.069Z,3.17
2019-03-16T05:36:25.605Z,3.15
2019-03-16T05:38:55.380Z,2.40
2019-03-16T05:41:25.141Z,1.53
2019-03-16T05:44:12.489Z,2.33
2019-03-16T05:46:59.728Z,3.02
2019-03-16T05:49:29.367Z,3.27
2019-03-16T05:51:58.872Z,6.23
2019-03-16T05:54:28.289Z,2.30
2019-03-16T05:56:58.110Z,1.77
2019-03-16T05:59:27.658Z,2.08
2019-03-16T06:01:57.287Z,3.77
2019-03-16T06:04:26.761Z,3.08
2019-03-16T06:06:56.269Z,2.42
2019-03-16T06:09:25.734Z,3.93
2019-03-16T06:11:55.289Z,3.87
2019-03-16T06:14:24.888Z,4.63
2019-03-16T06:17:12.360Z,5.07
2019-03-16T06:19:41.860Z,2.60
2019-03-16T06:22:11.367Z,5.83
2019-03-16T06:24:40.837Z,3.63
2019-03-16T06:27:46.013Z,1.80
2019-03-16T06:30:15.551Z,2.52
2019-03-16T06:32:45.141Z,3.30
2019-03-16T06:35:24.507Z,5.90
2019-03-16T06:37:46.066Z,4.22
2019-03-16T06:40:15.638Z,2.17
2019-03-16T06:42:45.247Z,3.40
2019-03-16T06:45:14.723Z,2.00
2019-03-16T06:47:44.320Z,2.63
2019-03-16T06:50:14.306Z,1.57
2019-03-16T06:52:43.860Z,4.80
2019-03-16T06:55:13.442Z,8.20
2019-03-16T06:57:42.881Z,2.27
2019-03-16T07:00:12.553Z,2.50
2019-03-16T07:02:42.471Z,2.13
2019-03-16T07:05:12.490Z,2.70
2019-03-16T07:07:41.963Z,1.55
2019-03-16T07:10:11.766Z,2.17
2019-03-16T07:13:02.512Z,1.77
2019-03-16T07:15:32.135Z,3.27
2019-03-16T07:18:01.989Z,3.30
2019-03-16T07:20:31.605Z,3.30
2019-03-16T07:23:01.534Z,1.80
2019-03-16T07:25:31.082Z,2.63
2019-03-16T07:28:00.730Z,3.10
2019-03-16T07:30:30.280Z,2.67
2019-03-16T07:32:59.737Z,2.20
2019-03-16T07:35:29.265Z,2.23
2019-03-16T07:37:58.735Z,2.60
2019-03-16T07:40:28.321Z,2.00
2019-03-16T07:42:58.015Z,2.20
2019-03-16T07:45:27.508Z,1.97
2019-03-16T07:47:56.916Z,3.30
2019-03-16T07:50:26.624Z,2.00
2019-03-16T07:52:56.187Z,2.20
2019-03-16T07:55:26.211Z,4.10
2019-03-16T07:57:55.680Z,1.50
2019-03-16T08:00:25.194Z,1.93
2019-03-16T08:06:35.700Z,3.10
2019-03-16T08:09:06.577Z,2.90
2019-03-16T08:11:54.128Z,1.90
2019-03-16T08:14:59.430Z,3.20
2019-03-16T08:17:29.063Z,6.37
2019-03-16T08:19:58.970Z,4.63
2019-03-16T08:22:28.579Z,4.13
2019-03-16T08:24:58.085Z,3.67
2019-03-16T08:27:27.637Z,7.47
2019-03-16T08:29:57.181Z,4.70
2019-03-16T08:32:26.781Z,3.07
2019-03-16T08:34:56.366Z,2.87
2019-03-16T08:37:25.865Z,2.30
2019-03-16T08:39:55.438Z,4.10
2019-03-16T08:42:24.957Z,2.93
2019-03-16T08:44:54.437Z,5.83
2019-03-16T08:47:24.087Z,5.00
2019-03-16T08:49:53.497Z,3.00
2019-03-16T08:52:22.993Z,3.53
2019-03-16T08:54:52.597Z,5.40
2019-03-16T08:57:22.106Z,5.90
2019-03-16T08:59:51.557Z,5.33
2019-03-16T09:02:21.097Z,5.00
2019-03-16T09:04:50.575Z,4.07
2019-03-16T09:07:20.053Z,7.93
2019-03-16T09:09:49.645Z,8.00
2019-03-16T09:12:19.185Z,4.20
2019-03-16T09:14:48.702Z,4.37
2019-03-16T09:17:18.211Z,5.00
2019-03-16T09:19:47.790Z,3.97
2019-03-16T09:22:17.313Z,5.03
2019-03-16T09:24:46.862Z,3.23
2019-03-16T09:27:16.489Z,5.43
2019-03-16T09:29:46.019Z,2.70
2019-03-16T09:32:15.655Z,4.33
2019-03-16T09:34:45.264Z,4.70
2019-03-16T09:37:14.770Z,3.30
2019-03-16T09:39:44.335Z,5.00
2019-03-16T09:42:13.843Z,7.17
2019-03-16T09:44:43.372Z,4.80
2019-03-16T09:47:12.940Z,3.30
2019-03-16T09:49:42.489Z,2.17
2019-03-16T09:52:15.358Z,2.97
2019-03-16T09:54:44.962Z,2.67
2019-03-16T09:57:14.513Z,3.70
2019-03-16T09:59:44.139Z,5.13
2019-03-16T10:02:13.597Z,5.03
2019-03-16T10:04:43.093Z,2.80
2019-03-16T10:07:12.666Z,3.23
2019-03-16T10:09:42.176Z,3.07
2019-03-16T10:12:11.672Z,4.90
2019-03-16T10:14:41.232Z,3.33
2019-03-16T10:17:10.798Z,2.60
2019-03-16T10:19:40.322Z,2.67
2019-03-16T10:22:09.954Z,1.43
2019-03-16T10:24:39.494Z,3.67
2019-03-16T10:27:09.102Z,6.27
2019-03-16T10:29:38.709Z,2.13
2019-03-16T10:32:08.129Z,2.47
2019-03-16T10:34:37.710Z,2.83
2019-03-16T10:37:07.402Z,2.87
2019-03-16T10:39:36.933Z,1.63
2019-03-16T10:42:06.531Z,1.50
2019-03-16T10:44:36.023Z,1.50
2019-03-16T10:47:05.640Z,1.53
2019-03-16T10:49:35.541Z,5.27
2019-03-16T10:52:05.140Z,2.40
2019-03-16T10:54:34.828Z,2.70
2019-03-16T10:57:04.592Z,3.00
2019-03-16T10:59:34.255Z,2.17
2019-03-16T11:02:03.780Z,2.00
2019-03-16T11:04:33.336Z,1.73
2019-03-16T11:07:02.869Z,1.87
2019-03-16T11:09:32.383Z,2.80
2019-03-16T11:12:01.867Z,1.73
2019-03-16T11:14:31.531Z,2.47
2019-03-16T11:17:01.019Z,3.53
2019-03-16T11:19:30.570Z,2.40
2019-03-16T11:22:00.094Z,2.60
2019-03-16T11:24:29.621Z,3.03
2019-03-16T11:26:59.092Z,1.97
2019-03-16T11:29:28.934Z,1.47
2019-03-16T11:31:58.403Z,3.73
2019-03-16T11:34:28.046Z,3.53
2019-03-16T11:36:57.540Z,1.30
2019-03-16T11:39:27.035Z,1.40
2019-03-16T11:41:56.644Z,2.40
2019-03-16T11:44:26.239Z,1.93
2019-03-16T11:46:55.812Z,1.50
2019-03-16T11:49:25.396Z,2.10
2019-03-16T11:51:54.943Z,1.73
2019-03-16T11:54:24.394Z,1.20
2019-03-16T11:56:54.285Z,1.63
2019-03-16T11:59:23.832Z,1.63
2019-03-16T12:02:04.918Z,1.30
2019-03-16T12:04:24.682Z,2.13
2019-03-16T12:06:54.197Z,1.63
2019-03-16T12:09:23.672Z,1.30
2019-03-16T12:11:53.408Z,1.23
2019-03-16T12:14:40.662Z,1.30
2019-03-16T12:17:10.265Z,1.20
2019-03-16T12:19:58.953Z,4.00
2019-03-16T12:22:46.770Z,1.63
2019-03-16T12:25:47.251Z,1.30
2019-03-16T12:28:28.183Z,3.33
2019-03-16T12:30:57.760Z,3.10
2019-03-16T12:33:27.422Z,4.53
2019-03-16T12:35:57.023Z,1.77
2019-03-16T12:38:26.535Z,7.30
2019-03-16T12:40:56.269Z,4.53
2019-03-16T12:43:25.803Z,1.20
2019-03-16T12:45:55.289Z,1.10
2019-03-16T12:48:24.797Z,1.37
2019-03-16T12:50:54.551Z,1.43
2019-03-16T12:53:24.200Z,1.30
2019-03-16T12:55:53.657Z,1.30
2019-03-16T12:58:23.166Z,1.37
2019-03-16T13:00:52.578Z,1.20
2019-03-16T13:03:22.269Z,1.00
2019-03-16T13:05:51.750Z,1.30
2019-03-16T13:08:21.225Z,1.17
2019-03-16T13:10:50.741Z,1.30
2019-03-16T13:13:20.228Z,1.20
2019-03-16T13:15:49.664Z,1.47
2019-03-16T13:18:19.402Z,1.10
2019-03-16T13:20:48.876Z,1.47
2019-03-16T13:23:18.354Z,1.90
2019-03-16T13:25:47.910Z,1.30
2019-03-16T13:28:17.371Z,1.50
2019-03-16T13:30:46.914Z,1.20
2019-03-16T13:33:16.510Z,1.43
2019-03-16T13:35:45.914Z,1.37
2019-03-16T13:38:15.456Z,1.33
2019-03-16T13:40:44.969Z,1.20
2019-03-16T13:43:14.565Z,1.17
2019-03-16T13:45:44.027Z,1.13
2019-03-16T13:48:13.505Z,1.40
2019-03-16T13:51:01.118Z,1.57
2019-03-16T13:53:32.691Z,2.63
2019-03-16T13:56:02.216Z,2.53
2019-03-16T13:58:49.766Z,2.40
2019-03-16T14:01:19.268Z,1.30
2019-03-16T14:03:48.832Z,1.33
2019-03-16T14:06:18.447Z,1.37
2019-03-16T14:08:48.055Z,1.27
2019-03-16T14:11:17.583Z,1.50
2019-03-16T14:13:47.250Z,1.20
2019-03-16T14:16:17.180Z,1.40
2019-03-16T14:18:46.655Z,6.00
2019-03-16T14:21:16.190Z,1.37
2019-03-16T14:23:46.144Z,1.40
2019-03-16T14:26:15.620Z,1.23
2019-03-16T14:28:45.557Z,2.37
2019-03-16T14:31:15.072Z,2.90
2019-03-16T14:33:44.799Z,1.47
2019-03-16T14:36:14.512Z,1.20
2019-03-16T14:38:44.308Z,1.30
2019-03-16T14:41:13.921Z,1.53
2019-03-16T14:44:19.122Z,2.63
2019-03-16T14:47:06.533Z,1.73
2019-03-16T14:49:36.033Z,1.10
2019-03-16T14:52:06.016Z,1.57
2019-03-16T14:54:35.539Z,1.40
2019-03-16T14:57:05.075Z,1.60
2019-03-16T14:59:34.547Z,1.60
2019-03-16T15:02:04.041Z,1.40
2019-03-16T15:04:33.608Z,1.57
2019-03-16T15:07:03.188Z,2.00
2019-03-16T15:09:32.671Z,1.40
2019-03-16T15:12:02.164Z,1.40
2019-03-16T15:14:31.747Z,1.70
2019-03-16T15:17:06.199Z,1.50
2019-03-16T15:19:35.691Z,1.47
2019-03-16T15:22:05.352Z,1.60
2019-03-16T15:24:34.870Z,1.43
2019-03-16T15:27:04.566Z,2.67
2019-03-16T15:29:34.085Z,1.80
2019-03-16T15:32:03.714Z,2.33
2019-03-16T15:34:33.331Z,1.67
2019-03-16T15:37:02.869Z,1.50
2019-03-16T15:39:32.345Z,1.60
2019-03-16T15:42:01.933Z,1.10
2019-03-16T15:44:31.361Z,1.90
2019-03-16T15:47:18.884Z,1.50
2019-03-16T15:49:48.382Z,1.90
2019-03-16T15:52:17.918Z,1.57
2019-03-16T15:54:47.603Z,1.60
2019-03-16T15:57:17.177Z,2.10
2019-03-16T15:59:46.698Z,1.40
2019-03-16T16:02:16.330Z,1.40
2019-03-16T16:04:45.841Z,1.40
2019-03-16T16:07:15.373Z,5.30
2019-03-16T16:09:44.955Z,1.40
2019-03-16T16:12:14.569Z,4.70
2019-03-16T16:14:44.333Z,2.90
2019-03-16T16:17:13.889Z,3.93
2019-03-16T16:19:43.501Z,2.30
2019-03-16T16:22:13.195Z,2.10
2019-03-16T16:24:42.734Z,1.73
2019-03-16T16:27:12.224Z,2.67
2019-03-16T16:29:41.729Z,1.63
2019-03-16T16:32:11.237Z,2.53
2019-03-16T16:34:42.974Z,1.83
2019-03-16T16:37:12.513Z,1.90
2019-03-16T16:39:42.084Z,2.40
2019-03-16T16:42:11.678Z,1.80
2019-03-16T16:44:41.239Z,2.80
2019-03-16T16:47:11.129Z,2.00
2019-03-16T16:49:40.726Z,2.10
2019-03-16T16:52:10.288Z,1.70
2019-03-16T16:54:39.855Z,3.23
2019-03-16T16:57:09.386Z,4.50
2019-03-16T16:59:39.067Z,2.13
2019-03-16T17:02:08.540Z,2.40
2019-03-16T17:04:38.084Z,4.10
2019-03-16T17:07:07.637Z,2.77
2019-03-16T17:09:37.213Z,3.37
2019-03-16T17:12:44.463Z,2.80
2019-03-16T17:15:32.145Z,4.83
2019-03-16T17:18:01.768Z,8.43
2019-03-16T17:20:31.387Z,5.37
2019-03-16T17:23:00.853Z,5.10
2019-03-16T17:25:30.365Z,3.17
2019-03-16T17:28:00.046Z,7.33
2019-03-16T17:30:29.582Z,6.10
2019-03-16T17:32:59.248Z,7.03
2019-03-16T17:36:06.891Z,9.53
2019-03-16T17:38:36.641Z,7.17
2019-03-16T17:41:23.879Z,5.90
2019-03-16T17:43:53.419Z,3.70
2019-03-16T17:46:23.034Z,2.40
2019-03-16T17:48:52.525Z,7.63
2019-03-16T17:51:22.047Z,3.43
2019-03-16T17:53:51.551Z,3.40
2019-03-16T17:56:21.119Z,3.33
2019-03-16T17:58:50.754Z,4.10
2019-03-16T18:01:20.389Z,5.35
2019-03-16T18:03:50.023Z,4.83
2019-03-16T18:06:19.711Z,4.78
2019-03-16T18:08:49.201Z,4.97
2019-03-16T18:11:18.780Z,5.83
2019-03-16T18:13:48.396Z,9.87
2019-03-16T18:16:17.949Z,3.80
2019-03-16T18:18:47.556Z,5.90
2019-03-16T18:21:17.107Z,3.77
2019-03-16T18:23:46.669Z,3.80
2019-03-16T18:26:16.303Z,4.80
2019-03-16T18:29:04.497Z,3.72
2019-03-16T18:31:33.977Z,4.00
2019-03-16T18:34:03.589Z,4.50
2019-03-16T18:36:33.136Z,3.40
2019-03-16T18:39:02.848Z,3.90
2019-03-16T18:41:32.398Z,4.30
2019-03-16T18:44:01.900Z,5.37
2019-03-16T18:46:31.748Z,4.45
2019-03-16T18:49:01.346Z,4.85
2019-03-16T18:51:31.150Z,4.45
2019-03-16T18:54:00.661Z,5.25
2019-03-16T18:56:30.340Z,3.40
2019-03-16T18:58:59.942Z,4.10
2019-03-16T19:01:29.485Z,3.37
2019-03-16T19:03:59.174Z,4.28
2019-03-16T19:06:46.547Z,7.72
2019-03-16T19:09:16.251Z,6.25
2019-03-16T19:11:45.881Z,8.43
2019-03-16T19:14:15.528Z,4.20
2019-03-16T19:16:45.144Z,3.80
2019-03-16T19:19:14.866Z,10.35
2019-03-16T19:21:44.451Z,10.20
2019-03-16T19:24:14.014Z,12.73
2019-03-16T19:26:43.989Z,22.75
2019-03-16T19:29:13.973Z,7.45
2019-03-16T19:31:43.541Z,16.07
2019-03-16T19:34:13.251Z,7.42
2019-03-16T19:36:42.839Z,9.63
2019-03-16T19:39:12.680Z,16.52
2019-03-16T19:42:39.432Z,16.40
2019-03-16T19:45:09.323Z,12.03
2019-03-16T19:47:38.892Z,13.05
2019-03-16T19:50:08.911Z,18.32
2019-03-16T19:52:38.568Z,10.60
2019-03-16T19:55:08.466Z,12.18
2019-03-16T19:57:38.043Z,11.60
2019-03-16T20:00:08.783Z,11.50
2019-03-16T20:02:47.212Z,12.28
2019-03-16T20:05:09.674Z,9.38
2019-03-16T20:07:39.267Z,7.35
2019-03-16T20:10:10.028Z,8.40
2019-03-16T20:12:39.603Z,8.23
2019-03-16T20:15:09.455Z,7.10
2019-03-16T20:17:39.040Z,4.33
2019-03-16T20:20:09.421Z,2.80
2019-03-16T20:22:39.051Z,2.80
2019-03-16T20:25:09.041Z,2.27
2019-03-16T20:27:38.782Z,2.23
2019-03-16T20:30:08.590Z,2.73
2019-03-16T20:32:38.281Z,1.77
2019-03-16T20:35:07.918Z,1.60
2019-03-16T20:37:37.540Z,4.20
2019-03-16T20:40:08.128Z,2.33
2019-03-16T20:43:13.422Z,1.70
2019-03-16T20:45:43.131Z,1.90
2019-03-16T20:48:12.729Z,1.60
2019-03-16T20:50:42.403Z,1.80
2019-03-16T20:53:11.982Z,1.73
2019-03-16T20:55:41.554Z,2.07
2019-03-16T20:58:11.203Z,1.90
2019-03-16T21:00:41.018Z,2.33
2019-03-16T21:03:15.963Z,2.87
2019-03-16T21:05:42.023Z,2.87
2019-03-16T21:08:11.600Z,3.40
2019-03-16T21:10:41.202Z,3.83
2019-03-16T21:13:11.056Z,3.27
2019-03-16T21:15:42.130Z,4.23
2019-03-16T21:18:11.698Z,2.77
2019-03-16T21:20:41.478Z,2.87
2019-03-16T21:23:11.014Z,4.90
2019-03-16T21:25:40.815Z,3.30
2019-03-16T21:28:10.451Z,9.90
2019-03-16T21:30:40.184Z,3.47
2019-03-16T21:33:09.750Z,3.03
2019-03-16T21:35:39.330Z,6.10
2019-03-16T21:38:08.976Z,4.13
2019-03-16T21:40:38.608Z,4.00
2019-03-16T21:43:08.304Z,7.77
2019-03-16T21:45:37.930Z,4.35
2019-03-16T21:48:07.405Z,4.60
2019-03-16T21:50:36.964Z,5.28
2019-03-16T21:53:06.484Z,3.40
2019-03-16T21:55:36.141Z,2.50
2019-03-16T21:58:05.666Z,2.77
2019-03-16T22:00:35.175Z,3.30
2019-03-16T22:03:04.994Z,2.70
2019-03-16T22:05:34.460Z,2.72
2019-03-16T22:08:04.613Z,4.45
2019-03-16T22:10:34.227Z,3.10
2019-03-16T22:13:04.831Z,3.98
2019-03-16T22:15:34.381Z,3.10
2019-03-16T22:18:04.150Z,4.90
2019-03-16T22:20:33.663Z,3.10
2019-03-16T22:23:06.109Z,6.42
2019-03-16T22:25:34.792Z,7.20
2019-03-16T22:28:04.382Z,3.60
2019-03-16T22:30:33.848Z,3.60
2019-03-16T22:33:03.465Z,3.20
2019-03-16T22:35:32.988Z,4.42
2019-03-16T22:38:02.535Z,2.98
2019-03-16T22:40:32.158Z,3.10
2019-03-16T22:43:01.772Z,4.22
2019-03-16T22:45:31.337Z,3.22
2019-03-16T22:48:00.868Z,3.10
2019-03-16T22:50:30.365Z,2.75
2019-03-16T22:52:59.873Z,3.08
2019-03-16T22:55:29.357Z,4.42
2019-03-16T22:57:59.063Z,2.10
2019-03-16T23:00:38.897Z,2.37
2019-03-16T23:03:08.862Z,2.37
2019-03-16T23:05:38.510Z,1.98
2019-03-16T23:08:08.170Z,2.63
2019-03-16T23:10:37.684Z,2.00
2019-03-16T23:13:07.156Z,1.95
2019-03-16T23:15:36.711Z,2.30
2019-03-16T23:18:06.201Z,2.30
2019-03-16T23:20:35.693Z,2.00
2019-03-16T23:23:05.257Z,2.42
2019-03-16T23:25:34.762Z,2.27
2019-03-16T23:28:04.307Z,1.72
2019-03-16T23:30:34.040Z,2.50
2019-03-16T23:33:03.490Z,1.92
2019-03-16T23:35:33.012Z,2.33
2019-03-16T23:38:02.893Z,2.00
2019-03-16T23:40:32.468Z,2.20
2019-03-16T23:43:02.172Z,2.20
2019-03-16T23:45:31.689Z,3.17
2019-03-16T23:48:01.216Z,3.02
2019-03-16T23:50:30.909Z,3.00
2019-03-16T23:53:00.488Z,3.15
2019-03-16T23:55:30.142Z,2.40
2019-03-16T23:57:59.616Z,2.92
